createdAt,value
2017-06-17T00:00:22.303Z,12.31
2017-06-17T00:01:22.923Z,12.29
2017-06-17T00:02:23.532Z,12.32
2017-06-17T00:03:24.146Z,12.28
2017-06-17T00:04:24.759Z,12.27
2017-06-17T00:05:25.400Z,12.24
2017-06-17T00:06:26.074Z,12.31
2017-06-17T00:07:26.671Z,12.29
2017-06-17T00:08:27.285Z,12.39
2017-06-17T00:09:27.933Z,12.29
2017-06-17T00:10:28.530Z,12.35
2017-06-17T00:11:29.172Z,12.36
2017-06-17T00:12:29.819Z,12.45
2017-06-17T00:13:30.434Z,12.50
2017-06-17T00:14:31.049Z,12.45
2017-06-17T00:15:31.718Z,12.50
2017-06-17T00:16:32.364Z,12.46
2017-06-17T00:17:32.980Z,12.47
2017-06-17T00:18:33.593Z,12.45
2017-06-17T00:19:34.232Z,12.45
2017-06-17T00:20:34.933Z,12.45
2017-06-17T00:21:35.551Z,12.45
2017-06-17T00:22:36.161Z,12.47
2017-06-17T00:23:36.774Z,12.45
2017-06-17T00:24:37.420Z,12.42
2017-06-17T00:25:38.084Z,12.45
2017-06-17T00:26:38.705Z,12.46
2017-06-17T00:27:39.324Z,12.50
2017-06-17T00:28:39.936Z,12.53
2017-06-17T00:29:40.587Z,12.46
2017-06-17T00:30:41.204Z,12.49
2017-06-17T00:31:41.816Z,12.49
2017-06-17T00:32:42.429Z,12.50
2017-06-17T00:33:43.043Z,12.47
2017-06-17T00:34:43.655Z,12.47
2017-06-17T00:35:44.319Z,12.49
2017-06-17T00:36:44.934Z,12.49
2017-06-17T00:37:45.548Z,12.55
2017-06-17T00:38:46.193Z,12.53
2017-06-17T00:39:46.817Z,12.60
2017-06-17T00:40:47.444Z,12.57
2017-06-17T00:41:48.046Z,12.57
2017-06-17T00:42:48.660Z,12.55
2017-06-17T00:43:49.272Z,12.58
2017-06-17T00:44:49.944Z,12.54
2017-06-17T00:45:50.597Z,12.55
2017-06-17T00:46:51.211Z,12.53
2017-06-17T00:47:51.854Z,12.60
2017-06-17T00:48:52.481Z,12.65
2017-06-17T00:49:53.107Z,12.58
2017-06-17T00:50:53.760Z,12.57
2017-06-17T00:51:54.406Z,12.49
2017-06-17T00:52:55.051Z,12.58
2017-06-17T00:53:55.697Z,12.61
2017-06-17T00:54:56.312Z,12.54
2017-06-17T00:55:56.975Z,12.55
2017-06-17T00:56:57.591Z,12.60
2017-06-17T00:57:58.231Z,12.57
2017-06-17T00:58:58.835Z,12.57
2017-06-17T00:59:59.448Z,12.58
2017-06-17T01:01:00.145Z,12.57
2017-06-17T01:02:00.759Z,12.58
2017-06-17T01:03:01.380Z,12.54
2017-06-17T01:04:02.026Z,12.47
2017-06-17T01:05:02.647Z,12.45
2017-06-17T01:06:03.261Z,12.47
2017-06-17T01:07:03.875Z,12.50
2017-06-17T01:08:04.488Z,12.53
2017-06-17T01:09:05.135Z,12.46
2017-06-17T01:10:05.750Z,12.49
2017-06-17T01:11:06.413Z,12.45
2017-06-17T01:12:07.028Z,12.46
2017-06-17T01:13:07.640Z,12.43
2017-06-17T01:14:08.256Z,12.43
2017-06-17T01:15:08.872Z,12.39
2017-06-17T01:16:09.566Z,12.40
2017-06-17T01:17:10.184Z,12.35
2017-06-17T01:18:10.800Z,12.32
2017-06-17T01:19:11.414Z,12.32
2017-06-17T01:20:12.034Z,12.35
2017-06-17T01:21:12.642Z,12.35
2017-06-17T01:22:13.257Z,12.28
2017-06-17T01:23:13.871Z,12.37
2017-06-17T01:24:14.485Z,12.37
2017-06-17T01:25:15.101Z,12.28
2017-06-17T01:26:15.766Z,12.37
2017-06-17T01:27:16.381Z,12.36
2017-06-17T01:28:16.994Z,12.37
2017-06-17T01:29:17.608Z,12.39
2017-06-17T01:30:18.221Z,12.31
2017-06-17T01:31:18.885Z,12.36
2017-06-17T01:32:19.501Z,12.32
2017-06-17T01:33:20.116Z,12.31
2017-06-17T01:34:20.728Z,12.37
2017-06-17T01:35:21.343Z,12.39
2017-06-17T01:36:22.007Z,12.40
2017-06-17T01:37:22.627Z,12.42
2017-06-17T01:38:23.240Z,12.37
2017-06-17T01:39:23.856Z,12.45
2017-06-17T01:40:24.470Z,12.45
2017-06-17T01:41:25.144Z,12.42
2017-06-17T01:42:25.773Z,12.42
2017-06-17T01:43:26.374Z,12.47
2017-06-17T01:44:26.990Z,12.45
2017-06-17T01:45:27.637Z,12.45
2017-06-17T01:46:28.237Z,12.45
2017-06-17T01:47:28.849Z,12.45
2017-06-17T01:48:29.464Z,12.42
2017-06-17T01:49:30.079Z,12.43
2017-06-17T01:50:30.695Z,12.39
2017-06-17T01:51:31.308Z,12.43
2017-06-17T01:52:31.956Z,12.42
2017-06-17T01:53:32.574Z,12.31
2017-06-17T01:54:33.189Z,12.28
2017-06-17T01:55:33.803Z,12.22
2017-06-17T01:56:34.467Z,12.36
2017-06-17T01:57:35.083Z,12.28
2017-06-17T01:58:35.707Z,12.24
2017-06-17T01:59:36.353Z,12.18
2017-06-17T02:00:36.966Z,12.17
2017-06-17T02:01:37.629Z,12.18
2017-06-17T02:02:38.241Z,12.24
2017-06-17T02:03:38.861Z,12.20
2017-06-17T02:04:39.480Z,12.20
2017-06-17T02:05:40.094Z,12.21
2017-06-17T02:06:40.763Z,12.18
2017-06-17T02:07:41.414Z,12.22
2017-06-17T02:08:42.031Z,12.15
2017-06-17T02:09:42.677Z,12.24
2017-06-17T02:10:43.324Z,12.09
2017-06-17T02:11:43.979Z,12.09
2017-06-17T02:12:44.591Z,12.12
2017-06-17T02:13:45.233Z,12.02
2017-06-17T02:14:45.835Z,12.13
2017-06-17T02:15:46.449Z,12.15
2017-06-17T02:16:47.062Z,12.17
2017-06-17T02:17:47.675Z,12.12
2017-06-17T02:18:48.321Z,12.10
2017-06-17T02:19:48.946Z,12.15
2017-06-17T02:20:49.549Z,12.09
2017-06-17T02:21:50.165Z,12.12
2017-06-17T02:22:50.803Z,12.24
2017-06-17T02:23:51.405Z,12.04
2017-06-17T02:24:52.053Z,12.12
2017-06-17T02:25:52.650Z,12.09
2017-06-17T02:26:53.290Z,12.24
2017-06-17T02:27:53.891Z,12.10
2017-06-17T02:28:54.505Z,12.20
2017-06-17T02:29:55.122Z,12.13
2017-06-17T02:30:55.733Z,12.09
2017-06-17T02:31:56.349Z,12.10
2017-06-17T02:32:56.992Z,12.06
2017-06-17T02:33:57.612Z,12.13
2017-06-17T02:34:58.225Z,12.20
2017-06-17T02:35:58.865Z,12.06
2017-06-17T02:36:59.517Z,12.22
2017-06-17T02:38:00.132Z,12.13
2017-06-17T02:39:00.746Z,12.09
2017-06-17T02:40:01.391Z,12.09
2017-06-17T02:41:02.006Z,12.13
2017-06-17T02:42:02.701Z,12.07
2017-06-17T02:43:03.317Z,12.09
2017-06-17T02:44:03.934Z,12.21
2017-06-17T02:45:04.553Z,12.10
2017-06-17T02:46:05.191Z,12.15
2017-06-17T02:47:05.820Z,12.12
2017-06-17T02:48:06.420Z,12.10
2017-06-17T02:49:07.059Z,12.10
2017-06-17T02:50:07.660Z,12.03
2017-06-17T02:51:08.275Z,12.07
2017-06-17T02:52:08.888Z,12.07
2017-06-17T02:53:09.533Z,12.15
2017-06-17T02:54:10.177Z,12.12
2017-06-17T02:55:10.776Z,12.07
2017-06-17T02:56:11.392Z,12.17
2017-06-17T02:57:12.057Z,12.10
2017-06-17T02:58:12.670Z,12.20
2017-06-17T02:59:13.283Z,12.07
2017-06-17T03:00:13.897Z,12.07
2017-06-17T03:01:14.536Z,12.02
2017-06-17T03:02:15.215Z,11.97
2017-06-17T03:03:15.813Z,12.00
2017-06-17T03:04:16.458Z,11.87
2017-06-17T03:05:17.073Z,11.88
2017-06-17T03:06:17.685Z,11.90
2017-06-17T03:07:18.338Z,11.90
2017-06-17T03:08:18.948Z,11.84
2017-06-17T03:09:19.562Z,11.94
2017-06-17T03:10:20.182Z,11.90
2017-06-17T03:11:20.793Z,11.81
2017-06-17T03:12:21.405Z,11.81
2017-06-17T03:13:22.019Z,11.88
2017-06-17T03:14:22.633Z,11.77
2017-06-17T03:15:23.245Z,11.81
2017-06-17T03:16:23.858Z,11.75
2017-06-17T03:17:24.555Z,11.73
2017-06-17T03:18:25.167Z,11.66
2017-06-17T03:19:25.780Z,11.66
2017-06-17T03:20:26.427Z,11.59
2017-06-17T03:21:27.040Z,11.57
2017-06-17T03:22:27.728Z,11.57
2017-06-17T03:23:28.353Z,11.52
2017-06-17T03:24:28.954Z,11.55
2017-06-17T03:25:29.593Z,11.45
2017-06-17T03:26:30.195Z,11.48
2017-06-17T03:27:30.808Z,11.47
2017-06-17T03:28:31.423Z,11.47
2017-06-17T03:29:32.037Z,11.45
2017-06-17T03:30:32.675Z,11.51
2017-06-17T03:31:33.278Z,11.48
2017-06-17T03:32:33.942Z,11.51
2017-06-17T03:33:34.557Z,11.52
2017-06-17T03:34:35.169Z,11.51
2017-06-17T03:35:35.782Z,11.48
2017-06-17T03:36:36.395Z,11.51
2017-06-17T03:37:37.057Z,11.52
2017-06-17T03:38:37.698Z,11.47
2017-06-17T03:39:38.327Z,11.45
2017-06-17T03:40:38.929Z,11.52
2017-06-17T03:41:39.543Z,11.48
2017-06-17T03:42:40.156Z,11.48
2017-06-17T03:43:40.795Z,11.57
2017-06-17T03:44:41.396Z,11.51
2017-06-17T03:45:42.039Z,11.47
2017-06-17T03:46:42.671Z,11.45
2017-06-17T03:47:43.296Z,11.44
2017-06-17T03:48:43.929Z,11.47
2017-06-17T03:49:44.527Z,11.47
2017-06-17T03:50:45.141Z,11.48
2017-06-17T03:51:45.789Z,11.47
2017-06-17T03:52:46.485Z,11.44
2017-06-17T03:53:47.099Z,11.50
2017-06-17T03:54:47.715Z,11.45
2017-06-17T03:55:48.368Z,11.45
2017-06-17T03:56:48.981Z,11.51
2017-06-17T03:57:49.680Z,11.47
2017-06-17T03:58:50.295Z,11.45
2017-06-17T03:59:50.910Z,11.51
2017-06-17T04:00:51.528Z,11.47
2017-06-17T04:01:52.175Z,11.50
2017-06-17T04:02:52.796Z,11.52
2017-06-17T04:03:53.406Z,11.45
2017-06-17T04:04:54.021Z,11.45
2017-06-17T04:05:54.638Z,11.47
2017-06-17T04:06:55.252Z,11.47
2017-06-17T04:07:55.866Z,11.48
2017-06-17T04:08:56.511Z,11.51
2017-06-17T04:09:57.112Z,11.50
2017-06-17T04:10:57.729Z,11.55
2017-06-17T04:11:58.342Z,11.59
2017-06-17T04:12:59.045Z,11.57
2017-06-17T04:13:59.659Z,11.57
2017-06-17T04:15:00.273Z,11.57
2017-06-17T04:16:00.887Z,11.57
2017-06-17T04:17:01.532Z,11.59
2017-06-17T04:18:02.185Z,11.55
2017-06-17T04:19:02.831Z,11.54
2017-06-17T04:20:03.445Z,11.59
2017-06-17T04:21:04.086Z,11.62
2017-06-17T04:22:04.714Z,11.48
2017-06-17T04:23:05.367Z,11.45
2017-06-17T04:24:06.014Z,11.47
2017-06-17T04:25:06.629Z,11.45
2017-06-17T04:26:07.244Z,11.37
2017-06-17T04:27:07.893Z,11.37
2017-06-17T04:28:08.584Z,11.43
2017-06-17T04:29:09.184Z,11.36
2017-06-17T04:30:09.800Z,11.40
2017-06-17T04:31:10.414Z,11.41
2017-06-17T04:32:11.037Z,11.40
2017-06-17T04:33:11.740Z,11.36
2017-06-17T04:34:12.353Z,11.30
2017-06-17T04:35:12.967Z,11.44
2017-06-17T04:36:13.581Z,11.33
2017-06-17T04:37:14.195Z,11.45
2017-06-17T04:38:14.861Z,11.35
2017-06-17T04:39:15.475Z,11.40
2017-06-17T04:40:16.088Z,11.43
2017-06-17T04:41:16.702Z,11.41
2017-06-17T04:42:17.317Z,11.40
2017-06-17T04:43:17.981Z,11.35
2017-06-17T04:44:18.629Z,11.40
2017-06-17T04:45:19.243Z,11.43
2017-06-17T04:46:19.858Z,11.43
2017-06-17T04:47:20.477Z,11.41
2017-06-17T04:48:21.091Z,11.43
2017-06-17T04:49:21.706Z,11.47
2017-06-17T04:50:22.351Z,11.44
2017-06-17T04:51:22.951Z,11.47
2017-06-17T04:52:23.566Z,11.48
2017-06-17T04:53:24.179Z,11.48
2017-06-17T04:54:24.818Z,11.48
2017-06-17T04:55:25.418Z,11.52
2017-06-17T04:56:26.033Z,11.55
2017-06-17T04:57:26.654Z,11.57
2017-06-17T04:58:27.320Z,11.57
2017-06-17T04:59:27.929Z,11.52
2017-06-17T05:00:28.546Z,11.59
2017-06-17T05:01:29.159Z,11.59
2017-06-17T05:02:29.774Z,11.52
2017-06-17T05:03:30.391Z,11.62
2017-06-17T05:04:31.042Z,11.57
2017-06-17T05:05:31.656Z,11.59
2017-06-17T05:06:32.274Z,11.59
2017-06-17T05:07:32.893Z,11.62
2017-06-17T05:08:33.552Z,11.60
2017-06-17T05:09:34.195Z,11.72
2017-06-17T05:10:34.795Z,11.68
2017-06-17T05:11:35.409Z,11.68
2017-06-17T05:12:36.024Z,11.72
2017-06-17T05:13:36.693Z,11.73
2017-06-17T05:14:37.296Z,11.69
2017-06-17T05:15:37.912Z,11.69
2017-06-17T05:16:38.527Z,11.80
2017-06-17T05:17:39.145Z,11.73
2017-06-17T05:18:39.838Z,11.73
2017-06-17T05:19:40.439Z,11.78
2017-06-17T05:20:41.088Z,11.69
2017-06-17T05:21:41.703Z,11.69
2017-06-17T05:22:42.318Z,11.70
2017-06-17T05:23:43.010Z,11.69
2017-06-17T05:24:43.613Z,11.66
2017-06-17T05:25:44.254Z,11.68
2017-06-17T05:26:44.855Z,11.66
2017-06-17T05:27:45.469Z,11.66
2017-06-17T05:28:46.132Z,11.69
2017-06-17T05:29:46.750Z,11.73
2017-06-17T05:30:47.362Z,11.77
2017-06-17T05:31:47.985Z,11.73
2017-06-17T05:32:48.593Z,11.75
2017-06-17T05:33:49.290Z,11.75
2017-06-17T05:34:49.909Z,11.81
2017-06-17T05:35:50.522Z,11.78
2017-06-17T05:36:51.137Z,11.81
2017-06-17T05:37:51.752Z,11.84
2017-06-17T05:38:52.380Z,11.80
2017-06-17T05:39:52.997Z,11.78
2017-06-17T05:40:53.609Z,11.80
2017-06-17T05:41:54.224Z,11.86
2017-06-17T05:42:54.846Z,11.94
2017-06-17T05:43:55.507Z,11.94
2017-06-17T05:44:56.121Z,11.86
2017-06-17T05:45:56.737Z,12.00
2017-06-17T05:46:57.378Z,11.99
2017-06-17T05:47:58.005Z,12.00
2017-06-17T05:48:58.682Z,12.00
2017-06-17T05:49:59.282Z,11.97
2017-06-17T05:50:59.898Z,12.00
2017-06-17T05:52:00.543Z,12.04
2017-06-17T05:53:01.146Z,11.99
2017-06-17T05:54:01.761Z,12.02
2017-06-17T05:55:02.374Z,11.97
2017-06-17T05:56:02.989Z,12.12
2017-06-17T05:57:03.604Z,12.15
2017-06-17T05:58:04.218Z,12.09
2017-06-17T05:59:04.882Z,12.09
2017-06-17T06:00:05.501Z,12.12
2017-06-17T06:01:06.113Z,12.06
2017-06-17T06:02:06.727Z,12.15
2017-06-17T06:03:07.368Z,12.17
2017-06-17T06:04:08.027Z,12.09
2017-06-17T06:05:08.639Z,12.12
2017-06-17T06:06:09.259Z,12.10
2017-06-17T06:07:09.871Z,11.94
2017-06-17T06:08:10.484Z,11.91
2017-06-17T06:09:11.099Z,12.10
2017-06-17T06:10:11.715Z,11.99
2017-06-17T06:11:12.332Z,11.94
2017-06-17T06:12:12.980Z,11.91
2017-06-17T06:13:13.596Z,11.91
2017-06-17T06:14:14.261Z,11.88
2017-06-17T06:15:14.875Z,11.88
2017-06-17T06:16:15.491Z,11.94
2017-06-17T06:17:16.134Z,12.00
2017-06-17T06:18:16.736Z,11.99
2017-06-17T06:19:17.401Z,11.94
2017-06-17T06:20:18.042Z,12.00
2017-06-17T06:21:18.678Z,12.02
2017-06-17T06:22:19.282Z,12.02
2017-06-17T06:23:19.896Z,11.97
2017-06-17T06:24:20.516Z,11.99
2017-06-17T06:25:21.128Z,12.10
2017-06-17T06:26:21.746Z,12.09
2017-06-17T06:27:22.361Z,12.09
2017-06-17T06:28:22.976Z,12.17
2017-06-17T06:29:23.592Z,12.13
2017-06-17T06:30:24.209Z,12.24
2017-06-17T06:31:24.824Z,12.06
2017-06-17T06:32:25.445Z,12.18
2017-06-17T06:33:26.057Z,12.18
2017-06-17T06:34:26.722Z,12.22
2017-06-17T06:35:27.338Z,12.22
2017-06-17T06:36:27.955Z,12.29
2017-06-17T06:37:28.597Z,12.31
2017-06-17T06:38:29.198Z,12.35
2017-06-17T06:39:29.815Z,12.36
2017-06-17T06:40:30.466Z,12.42
2017-06-17T06:41:31.117Z,12.49
2017-06-17T06:42:31.730Z,12.49
2017-06-17T06:43:32.348Z,12.57
2017-06-17T06:44:32.968Z,12.58
2017-06-17T06:45:33.581Z,12.57
2017-06-17T06:46:34.202Z,12.60
2017-06-17T06:47:34.814Z,12.60
2017-06-17T06:48:35.464Z,12.68
2017-06-17T06:49:36.136Z,12.70
2017-06-17T06:50:36.774Z,12.67
2017-06-17T06:51:37.374Z,12.70
2017-06-17T06:52:37.991Z,12.72
2017-06-17T06:53:38.609Z,12.72
2017-06-17T06:54:39.274Z,12.83
2017-06-17T06:55:39.923Z,12.87
2017-06-17T06:56:40.524Z,12.79
2017-06-17T06:57:41.139Z,12.82
2017-06-17T06:58:41.754Z,12.86
2017-06-17T06:59:42.371Z,12.94
2017-06-17T07:00:43.022Z,12.95
2017-06-17T07:01:43.677Z,12.94
2017-06-17T07:02:44.290Z,12.97
2017-06-17T07:03:44.937Z,13.01
2017-06-17T07:04:45.608Z,13.03
2017-06-17T07:05:46.223Z,12.98
2017-06-17T07:06:46.838Z,13.05
2017-06-17T07:07:47.455Z,13.09
2017-06-17T07:08:48.103Z,13.15
2017-06-17T07:09:48.770Z,13.13
2017-06-17T07:10:49.391Z,13.00
2017-06-17T07:11:50.004Z,13.15
2017-06-17T07:12:50.623Z,13.16
2017-06-17T07:13:51.238Z,13.13
2017-06-17T07:14:51.904Z,13.12
2017-06-17T07:15:52.520Z,13.20
2017-06-17T07:16:53.138Z,13.30
2017-06-17T07:17:53.755Z,13.30
2017-06-17T07:18:54.371Z,13.41
2017-06-17T07:19:55.014Z,13.50
2017-06-17T07:20:55.619Z,13.53
2017-06-17T07:21:56.236Z,13.56
2017-06-17T07:22:56.854Z,13.52
2017-06-17T07:23:57.468Z,13.53
2017-06-17T07:24:58.134Z,13.50
2017-06-17T07:25:58.785Z,13.49
2017-06-17T07:26:59.399Z,13.42
2017-06-17T07:28:00.049Z,13.39
2017-06-17T07:29:00.692Z,13.37
2017-06-17T07:30:01.293Z,13.47
2017-06-17T07:31:01.910Z,13.42
2017-06-17T07:32:02.527Z,13.53
2017-06-17T07:33:03.144Z,13.53
2017-06-17T07:34:03.762Z,13.59
2017-06-17T07:35:04.458Z,13.60
2017-06-17T07:36:05.062Z,13.60
2017-06-17T07:37:05.681Z,13.56
2017-06-17T07:38:06.298Z,13.57
2017-06-17T07:39:06.919Z,13.57
2017-06-17T07:40:07.591Z,13.62
2017-06-17T07:41:08.212Z,13.59
2017-06-17T07:42:08.864Z,13.59
2017-06-17T07:43:09.482Z,13.59
2017-06-17T07:44:10.134Z,13.62
2017-06-17T07:45:10.799Z,13.63
2017-06-17T07:46:11.443Z,13.71
2017-06-17T07:47:12.046Z,13.71
2017-06-17T07:48:12.665Z,13.72
2017-06-17T07:49:13.287Z,13.81
2017-06-17T07:50:13.951Z,13.75
2017-06-17T07:51:14.568Z,13.74
2017-06-17T07:52:15.192Z,13.75
2017-06-17T07:53:15.807Z,13.70
2017-06-17T07:54:16.423Z,13.68
2017-06-17T07:55:17.098Z,13.68
2017-06-17T07:56:17.713Z,13.65
2017-06-17T07:57:18.331Z,13.63
2017-06-17T07:58:18.947Z,13.60
2017-06-17T07:59:19.570Z,13.59
2017-06-17T08:00:20.236Z,13.63
2017-06-17T08:01:20.855Z,13.57
2017-06-17T08:02:21.477Z,13.65
2017-06-17T08:03:22.094Z,13.62
2017-06-17T08:04:22.715Z,13.63
2017-06-17T08:05:23.363Z,13.67
2017-06-17T08:06:23.980Z,13.71
2017-06-17T08:07:24.633Z,13.77
2017-06-17T08:08:25.251Z,13.75
2017-06-17T08:09:25.927Z,13.78
2017-06-17T08:10:26.529Z,13.75
2017-06-17T08:11:27.150Z,13.92
2017-06-17T08:12:27.766Z,13.99
2017-06-17T08:13:28.415Z,14.08
2017-06-17T08:14:29.043Z,14.08
2017-06-17T08:15:29.698Z,14.10
2017-06-17T08:16:30.314Z,14.14
2017-06-17T08:17:30.933Z,14.12
2017-06-17T08:18:31.582Z,14.20
2017-06-17T08:19:32.201Z,14.25
2017-06-17T08:20:32.870Z,14.22
2017-06-17T08:21:33.513Z,14.25
2017-06-17T08:22:34.119Z,14.22
2017-06-17T08:23:34.763Z,14.25
2017-06-17T08:24:35.395Z,14.15
2017-06-17T08:25:36.050Z,14.20
2017-06-17T08:26:36.676Z,14.17
2017-06-17T08:27:37.284Z,14.17
2017-06-17T08:28:37.904Z,14.15
2017-06-17T08:29:38.530Z,14.18
2017-06-17T08:30:39.151Z,14.14
2017-06-17T08:31:39.808Z,14.18
2017-06-17T08:32:40.422Z,14.18
2017-06-17T08:33:41.042Z,14.20
2017-06-17T08:34:41.661Z,14.37
2017-06-17T08:35:42.329Z,14.37
2017-06-17T08:36:42.945Z,14.37
2017-06-17T08:37:43.563Z,14.37
2017-06-17T08:38:44.182Z,14.33
2017-06-17T08:39:44.800Z,14.26
2017-06-17T08:40:45.502Z,14.29
2017-06-17T08:41:46.152Z,14.41
2017-06-17T08:42:46.756Z,14.53
2017-06-17T08:43:47.373Z,14.53
2017-06-17T08:44:47.991Z,14.55
2017-06-17T08:45:48.659Z,14.59
2017-06-17T08:46:49.310Z,14.70
2017-06-17T08:47:49.938Z,14.86
2017-06-17T08:48:50.545Z,14.91
2017-06-17T08:49:51.163Z,15.00
2017-06-17T08:50:51.783Z,15.11
2017-06-17T08:51:52.433Z,15.19
2017-06-17T08:52:53.053Z,15.25
2017-06-17T08:53:53.672Z,15.37
2017-06-17T08:54:54.319Z,15.49
2017-06-17T08:55:54.970Z,15.57
2017-06-17T08:56:55.589Z,15.68
2017-06-17T08:57:56.208Z,15.73
2017-06-17T08:58:56.827Z,15.76
2017-06-17T08:59:57.444Z,15.82
2017-06-17T09:00:58.065Z,15.83
2017-06-17T09:01:58.689Z,15.88
2017-06-17T09:02:59.305Z,15.91
2017-06-17T09:03:59.958Z,16.04
2017-06-17T09:05:00.579Z,15.88
2017-06-17T09:06:01.248Z,16.01
2017-06-17T09:07:01.874Z,16.10
2017-06-17T09:08:02.490Z,16.09
2017-06-17T09:09:03.110Z,16.12
2017-06-17T09:10:03.728Z,16.21
2017-06-17T09:11:04.398Z,16.24
2017-06-17T09:12:05.014Z,16.21
2017-06-17T09:13:05.635Z,16.17
2017-06-17T09:14:06.254Z,16.23
2017-06-17T09:15:06.873Z,16.26
2017-06-17T09:16:07.543Z,16.24
2017-06-17T09:17:08.162Z,16.29
2017-06-17T09:18:08.783Z,16.24
2017-06-17T09:19:09.401Z,16.28
2017-06-17T09:20:10.022Z,16.33
2017-06-17T09:21:10.691Z,16.33
2017-06-17T09:22:11.312Z,16.33
2017-06-17T09:23:11.965Z,16.42
2017-06-17T09:24:12.585Z,16.41
2017-06-17T09:25:13.203Z,16.61
2017-06-17T09:26:13.847Z,16.75
2017-06-17T09:27:14.483Z,16.84
2017-06-17T09:28:15.116Z,16.86
2017-06-17T09:29:15.723Z,16.87
2017-06-17T09:30:16.343Z,16.91
2017-06-17T09:31:17.047Z,16.97
2017-06-17T09:32:17.703Z,16.97
2017-06-17T09:33:18.361Z,17.05
2017-06-17T09:34:18.978Z,17.19
2017-06-17T09:35:19.597Z,17.30
2017-06-17T09:36:20.276Z,17.30
2017-06-17T09:37:20.889Z,17.36
2017-06-17T09:38:21.508Z,17.44
2017-06-17T09:39:22.127Z,17.45
2017-06-17T09:40:22.746Z,17.49
2017-06-17T09:41:23.366Z,17.42
2017-06-17T09:42:23.988Z,17.67
2017-06-17T09:43:24.613Z,17.68
2017-06-17T09:44:25.231Z,17.54
2017-06-17T09:45:25.855Z,17.60
2017-06-17T09:46:26.524Z,17.65
2017-06-17T09:47:27.143Z,17.71
2017-06-17T09:48:27.765Z,17.78
2017-06-17T09:49:28.382Z,17.68
2017-06-17T09:50:29.030Z,17.52
2017-06-17T09:51:29.685Z,17.60
2017-06-17T09:52:30.330Z,17.68
2017-06-17T09:53:30.938Z,17.70
2017-06-17T09:54:31.564Z,17.85
2017-06-17T09:55:32.206Z,17.71
2017-06-17T09:56:32.897Z,17.71
2017-06-17T09:57:33.502Z,17.79
2017-06-17T09:58:34.125Z,17.82
2017-06-17T09:59:34.744Z,17.95
2017-06-17T10:00:35.364Z,18.07
2017-06-17T10:01:36.036Z,18.15
2017-06-17T10:02:36.655Z,18.10
2017-06-17T10:03:37.278Z,18.22
2017-06-17T10:04:37.897Z,18.23
2017-06-17T10:05:38.524Z,18.11
2017-06-17T10:06:39.146Z,18.15
2017-06-17T10:07:39.765Z,18.13
2017-06-17T10:08:40.417Z,18.23
2017-06-17T10:09:41.038Z,18.28
2017-06-17T10:10:41.699Z,18.20
2017-06-17T10:11:42.371Z,18.19
2017-06-17T10:12:42.991Z,18.22
2017-06-17T10:13:43.612Z,18.22
2017-06-17T10:14:44.234Z,18.15
2017-06-17T10:15:44.853Z,18.11
2017-06-17T10:16:45.525Z,18.10
2017-06-17T10:17:46.145Z,18.07
2017-06-17T10:18:46.769Z,18.13
2017-06-17T10:19:47.394Z,18.15
2017-06-17T10:20:48.015Z,18.22
2017-06-17T10:21:48.713Z,18.23
2017-06-17T10:22:49.321Z,18.26
2017-06-17T10:23:49.968Z,18.20
2017-06-17T10:24:50.601Z,18.15
2017-06-17T10:25:51.211Z,18.16
2017-06-17T10:26:51.882Z,18.29
2017-06-17T10:27:52.538Z,18.50
2017-06-17T10:28:53.158Z,18.58
2017-06-17T10:29:53.780Z,18.74
2017-06-17T10:30:54.401Z,18.88
2017-06-17T10:31:55.027Z,18.83
2017-06-17T10:32:55.646Z,18.88
2017-06-17T10:33:56.300Z,18.80
2017-06-17T10:34:56.910Z,18.78
2017-06-17T10:35:57.526Z,18.73
2017-06-17T10:36:58.150Z,18.71
2017-06-17T10:37:58.771Z,18.68
2017-06-17T10:38:59.428Z,18.62
2017-06-17T10:40:00.049Z,18.68
2017-06-17T10:41:00.670Z,18.78
2017-06-17T10:42:01.291Z,18.88
2017-06-17T10:43:01.912Z,18.98
2017-06-17T10:44:02.559Z,19.00
2017-06-17T10:45:03.167Z,19.00
2017-06-17T10:46:03.796Z,19.09
2017-06-17T10:47:04.466Z,19.00
2017-06-17T10:48:05.091Z,19.15
2017-06-17T10:49:05.711Z,19.31
2017-06-17T10:50:06.332Z,19.36
2017-06-17T10:51:06.952Z,19.36
2017-06-17T10:52:07.660Z,19.31
2017-06-17T10:53:08.294Z,19.48
2017-06-17T10:54:08.949Z,19.49
2017-06-17T10:55:09.595Z,19.55
2017-06-17T10:56:10.205Z,19.66
2017-06-17T10:57:10.907Z,19.59
2017-06-17T10:58:11.515Z,19.49
2017-06-17T10:59:12.138Z,19.59
2017-06-17T11:00:12.783Z,19.67
2017-06-17T11:01:13.393Z,19.71
2017-06-17T11:02:14.016Z,19.79
2017-06-17T11:03:14.677Z,19.94
2017-06-17T11:04:15.324Z,19.92
2017-06-17T11:05:15.931Z,19.91
2017-06-17T11:06:16.554Z,19.88
2017-06-17T11:07:17.227Z,19.94
2017-06-17T11:08:17.849Z,19.91
2017-06-17T11:09:18.471Z,19.95
2017-06-17T11:10:19.092Z,19.99
2017-06-17T11:11:19.715Z,20.07
2017-06-17T11:12:20.387Z,19.99
2017-06-17T11:13:21.019Z,19.95
2017-06-17T11:14:21.633Z,19.91
2017-06-17T11:15:22.257Z,19.88
2017-06-17T11:16:22.880Z,19.92
2017-06-17T11:17:23.554Z,20.06
2017-06-17T11:18:24.181Z,20.04
2017-06-17T11:19:24.845Z,20.06
2017-06-17T11:20:25.464Z,20.02
2017-06-17T11:21:26.087Z,19.99
2017-06-17T11:22:27.010Z,20.03
2017-06-17T11:23:27.637Z,20.00
2017-06-17T11:24:28.262Z,19.91
2017-06-17T11:25:28.882Z,19.96
2017-06-17T11:26:29.503Z,20.03
2017-06-17T11:27:30.127Z,20.21
2017-06-17T11:28:30.775Z,20.18
2017-06-17T11:29:31.382Z,20.24
2017-06-17T11:30:32.005Z,20.36
2017-06-17T11:31:32.626Z,20.39
2017-06-17T11:32:33.298Z,20.48
2017-06-17T11:33:33.922Z,20.44
2017-06-17T11:34:34.544Z,20.41
2017-06-17T11:35:35.168Z,20.22
2017-06-17T11:36:35.790Z,20.16
2017-06-17T11:37:36.411Z,20.16
2017-06-17T11:38:37.066Z,20.18
2017-06-17T11:39:37.674Z,20.11
2017-06-17T11:40:38.296Z,20.21
2017-06-17T11:41:39.152Z,20.19
2017-06-17T11:42:39.830Z,20.11
2017-06-17T11:43:40.451Z,20.21
2017-06-17T11:44:41.074Z,20.16
2017-06-17T11:45:41.701Z,20.21
2017-06-17T11:46:42.320Z,20.22
2017-06-17T11:47:42.974Z,20.31
2017-06-17T11:48:43.598Z,20.48
2017-06-17T11:49:44.219Z,20.60
2017-06-17T11:50:44.842Z,20.75
2017-06-17T11:51:45.466Z,20.75
2017-06-17T11:52:46.138Z,20.84
2017-06-17T11:53:46.793Z,20.92
2017-06-17T11:54:47.420Z,21.00
2017-06-17T11:55:48.040Z,21.00
2017-06-17T11:56:48.664Z,20.99
2017-06-17T11:57:49.336Z,21.15
2017-06-17T11:58:49.993Z,21.15
2017-06-17T11:59:50.615Z,21.12
2017-06-17T12:00:51.270Z,21.14
2017-06-17T12:01:51.892Z,21.21
2017-06-17T12:02:52.814Z,21.21
2017-06-17T12:03:53.437Z,21.20
2017-06-17T12:04:54.059Z,21.11
2017-06-17T12:05:54.708Z,21.22
2017-06-17T12:06:55.318Z,21.21
2017-06-17T12:07:55.996Z,21.29
2017-06-17T12:08:56.619Z,21.21
2017-06-17T12:09:57.242Z,21.07
2017-06-17T12:10:57.865Z,21.02
2017-06-17T12:11:58.520Z,21.18
2017-06-17T12:12:59.126Z,21.27
2017-06-17T12:13:59.750Z,21.03
2017-06-17T12:15:00.374Z,20.97
2017-06-17T12:16:00.999Z,21.02
2017-06-17T12:17:01.622Z,21.03
2017-06-17T12:18:02.330Z,21.27
2017-06-17T12:19:03.009Z,21.24
2017-06-17T12:20:03.639Z,21.25
2017-06-17T12:21:04.248Z,21.11
2017-06-17T12:22:04.870Z,21.07
2017-06-17T12:23:05.495Z,21.12
2017-06-17T12:24:06.117Z,21.03
2017-06-17T12:25:06.739Z,21.25
2017-06-17T12:26:07.363Z,21.22
2017-06-17T12:27:07.988Z,21.18
2017-06-17T12:28:08.660Z,21.18
2017-06-17T12:29:09.283Z,21.18
2017-06-17T12:30:09.905Z,21.07
2017-06-17T12:31:10.530Z,21.09
2017-06-17T12:32:11.151Z,21.09
2017-06-17T12:33:11.775Z,20.97
2017-06-17T12:34:12.429Z,21.07
2017-06-17T12:35:13.053Z,21.14
2017-06-17T12:36:13.676Z,21.07
2017-06-17T12:37:14.299Z,21.11
2017-06-17T12:38:14.923Z,20.99
2017-06-17T12:39:15.553Z,20.96
2017-06-17T12:40:16.173Z,21.24
2017-06-17T12:41:16.796Z,21.25
2017-06-17T12:42:17.422Z,21.30
2017-06-17T12:43:18.103Z,21.48
2017-06-17T12:44:18.752Z,21.45
2017-06-17T12:45:19.415Z,21.36
2017-06-17T12:46:20.040Z,21.29
2017-06-17T12:47:20.660Z,21.24
2017-06-17T12:48:21.332Z,21.25
2017-06-17T12:49:21.989Z,21.21
2017-06-17T12:50:22.644Z,21.36
2017-06-17T12:51:23.299Z,21.42
2017-06-17T12:52:23.907Z,21.37
2017-06-17T12:53:24.581Z,21.54
2017-06-17T12:54:25.205Z,21.73
2017-06-17T12:55:25.829Z,21.79
2017-06-17T12:56:26.454Z,21.76
2017-06-17T12:57:27.078Z,21.72
2017-06-17T12:58:27.751Z,21.80
2017-06-17T12:59:28.377Z,21.82
2017-06-17T13:00:28.999Z,21.93